createdAt,value
2018-02-21T00:00:41.064Z,77.78
2018-02-21T00:01:40.982Z,77.69
2018-02-21T00:02:40.892Z,77.78
2018-02-21T00:03:40.803Z,78.16
2018-02-21T00:04:40.720Z,78.16
2018-02-21T00:05:40.642Z,78.34
2018-02-21T00:06:40.554Z,78.06
2018-02-21T00:07:40.469Z,77.50
2018-02-21T00:08:40.374Z,77.97
2018-02-21T00:09:40.294Z,77.97
2018-02-21T00:10:40.214Z,78.16
2018-02-21T00:11:40.128Z,77.87
2018-02-21T00:12:40.048Z,78.25
2018-02-21T00:13:39.955Z,78.25
2018-02-21T00:14:39.873Z,78.06
2018-02-21T00:15:39.794Z,78.63
2018-02-21T00:16:39.718Z,78.16
2018-02-21T00:17:39.625Z,78.16
2018-02-21T00:18:39.531Z,77.69
2018-02-21T00:19:39.441Z,78.44
2018-02-21T00:20:39.367Z,78.53
2018-02-21T00:21:39.266Z,78.25
2018-02-21T00:22:39.200Z,78.25
2018-02-21T00:23:39.109Z,78.53
2018-02-21T00:24:39.019Z,78.44
2018-02-21T00:25:38.931Z,78.06
2018-02-21T00:26:38.839Z,78.25
2018-02-21T00:27:38.763Z,78.72
2018-02-21T00:28:38.682Z,78.72
2018-02-21T00:29:38.592Z,78.72
2018-02-21T00:30:38.507Z,78.91
2018-02-21T00:31:38.432Z,79.48
2018-02-21T00:32:38.334Z,79.29
2018-02-21T00:33:38.249Z,79.38
2018-02-21T00:34:38.169Z,79.67
2018-02-21T00:35:38.095Z,79.86
2018-02-21T00:36:37.997Z,79.48
2018-02-21T00:37:37.909Z,79.86
2018-02-21T00:38:37.838Z,79.67
2018-02-21T00:39:37.748Z,79.48
2018-02-21T00:40:37.665Z,79.48
2018-02-21T00:41:37.575Z,79.67
2018-02-21T00:42:37.483Z,79.67
2018-02-21T00:43:37.392Z,79.48
2018-02-21T00:44:37.315Z,79.48
2018-02-21T00:45:37.235Z,79.57
2018-02-21T00:46:37.148Z,79.38
2018-02-21T00:47:37.072Z,79.38
2018-02-21T00:48:36.969Z,79.38
2018-02-21T00:49:36.888Z,79.67
2018-02-21T00:50:36.792Z,80.33
2018-02-21T00:51:36.716Z,79.67
2018-02-21T00:52:36.641Z,79.57
2018-02-21T00:53:36.543Z,80.14
2018-02-21T00:54:36.473Z,79.67
2018-02-21T00:55:36.377Z,79.95
2018-02-21T00:56:36.283Z,80.62
2018-02-21T00:57:36.214Z,80.14
2018-02-21T00:58:36.117Z,80.52
2018-02-21T00:59:36.047Z,79.95
2018-02-21T01:00:35.948Z,80.24
2018-02-21T01:01:35.861Z,80.52
2018-02-21T01:02:35.775Z,80.14
2018-02-21T01:03:35.702Z,80.05
2018-02-21T01:04:35.621Z,80.43
2018-02-21T01:05:35.526Z,80.43
2018-02-21T01:06:35.441Z,80.43
2018-02-21T01:07:35.343Z,80.14
2018-02-21T01:08:35.267Z,80.33
2018-02-21T01:09:35.172Z,80.62
2018-02-21T01:10:35.100Z,80.80
2018-02-21T01:11:35.014Z,80.05
2018-02-21T01:12:34.920Z,80.43
2018-02-21T01:13:34.851Z,80.24
2018-02-21T01:14:34.745Z,80.62
2018-02-21T01:15:34.658Z,81.09
2018-02-21T01:16:34.606Z,81.23
2018-02-21T01:17:34.494Z,81.61
2018-02-21T01:18:34.411Z,80.85
2018-02-21T01:19:34.323Z,80.80
2018-02-21T01:20:34.244Z,81.09
2018-02-21T01:21:34.153Z,81.37
2018-02-21T01:22:34.072Z,80.90
2018-02-21T01:23:34.000Z,80.71
2018-02-21T01:24:33.903Z,81.52
2018-02-21T01:25:33.825Z,81.65
2018-02-21T01:26:33.724Z,81.09
2018-02-21T01:27:33.649Z,81.42
2018-02-21T01:28:33.548Z,81.23
2018-02-21T01:29:33.481Z,81.42
2018-02-21T01:30:33.389Z,81.42
2018-02-21T01:31:33.298Z,81.84
2018-02-21T01:32:33.229Z,81.71
2018-02-21T01:33:33.125Z,81.61
2018-02-21T01:34:33.054Z,81.71
2018-02-21T01:35:32.956Z,81.71
2018-02-21T01:36:32.874Z,81.71
2018-02-21T01:37:32.795Z,81.99
2018-02-21T01:38:32.700Z,81.71
2018-02-21T01:39:32.609Z,81.52
2018-02-21T01:40:32.527Z,81.80
2018-02-21T01:41:32.450Z,81.33
2018-02-21T01:42:32.370Z,81.52
2018-02-21T01:43:32.280Z,81.56
2018-02-21T01:44:32.188Z,81.56
2018-02-21T01:45:32.107Z,80.95
2018-02-21T01:46:32.022Z,81.23
2018-02-21T01:47:31.922Z,80.85
2018-02-21T01:48:31.851Z,80.76
2018-02-21T01:49:31.772Z,80.85
2018-02-21T01:50:31.680Z,81.18
2018-02-21T01:51:31.598Z,80.99
2018-02-21T01:52:31.498Z,80.80
2018-02-21T01:53:31.419Z,80.90
2018-02-21T01:54:31.327Z,80.90
2018-02-21T01:55:31.251Z,80.80
2018-02-21T01:56:31.168Z,80.62
2018-02-21T01:57:31.074Z,81.42
2018-02-21T01:58:31.002Z,81.42
2018-02-21T01:59:30.903Z,81.74
2018-02-21T02:00:30.811Z,81.33
2018-02-21T02:01:30.732Z,81.42
2018-02-21T02:02:30.655Z,81.71
2018-02-21T02:03:30.575Z,81.42
2018-02-21T02:04:30.484Z,81.52
2018-02-21T02:05:30.394Z,81.61
2018-02-21T02:06:30.302Z,81.65
2018-02-21T02:07:30.226Z,81.99
2018-02-21T02:08:30.136Z,81.74
2018-02-21T02:09:30.054Z,81.61
2018-02-21T02:10:29.968Z,82.09
2018-02-21T02:11:29.885Z,82.28
2018-02-21T02:12:29.789Z,81.99
2018-02-21T02:13:29.707Z,81.90
2018-02-21T02:14:29.628Z,81.93
2018-02-21T02:15:29.528Z,81.99
2018-02-21T02:16:29.466Z,81.71
2018-02-21T02:17:29.363Z,81.80
2018-02-21T02:18:29.279Z,81.90
2018-02-21T02:19:29.193Z,81.56
2018-02-21T02:20:29.101Z,81.80
2018-02-21T02:21:29.043Z,81.61
2018-02-21T02:22:28.928Z,82.09
2018-02-21T02:23:28.851Z,81.80
2018-02-21T02:24:28.773Z,82.65
2018-02-21T02:25:28.678Z,82.75
2018-02-21T02:26:28.600Z,82.65
2018-02-21T02:27:28.509Z,82.93
2018-02-21T02:28:28.434Z,82.93
2018-02-21T02:29:28.357Z,82.84
2018-02-21T02:30:28.257Z,82.93
2018-02-21T02:31:28.166Z,82.93
2018-02-21T02:32:28.085Z,83.03
2018-02-21T02:33:27.997Z,82.65
2018-02-21T02:34:27.908Z,82.75
2018-02-21T02:35:27.824Z,82.75
2018-02-21T02:36:27.758Z,82.75
2018-02-21T02:37:27.663Z,82.75
2018-02-21T02:38:27.569Z,82.75
2018-02-21T02:39:27.480Z,82.93
2018-02-21T02:40:27.399Z,83.22
2018-02-21T02:41:27.309Z,83.12
2018-02-21T02:42:27.221Z,83.03
2018-02-21T02:43:27.136Z,83.12
2018-02-21T02:44:27.053Z,83.03
2018-02-21T02:45:26.978Z,83.50
2018-02-21T02:46:26.881Z,83.50
2018-02-21T02:47:26.795Z,83.88
2018-02-21T02:48:26.710Z,84.26
2018-02-21T02:49:26.622Z,83.40
2018-02-21T02:50:26.536Z,83.69
2018-02-21T02:51:26.459Z,83.69
2018-02-21T02:52:26.385Z,83.59
2018-02-21T02:53:26.284Z,83.31
2018-02-21T02:54:26.199Z,83.50
2018-02-21T02:55:26.108Z,83.50
2018-02-21T02:56:26.040Z,83.31
2018-02-21T02:57:25.959Z,83.22
2018-02-21T02:58:25.863Z,83.50
2018-02-21T02:59:25.775Z,83.50
2018-02-21T03:00:25.686Z,84.07
2018-02-21T03:01:25.608Z,84.16
2018-02-21T03:02:25.506Z,83.50
2018-02-21T03:03:25.431Z,83.31
2018-02-21T03:04:25.345Z,83.31
2018-02-21T03:05:25.258Z,83.31
2018-02-21T03:06:25.177Z,83.40
2018-02-21T03:07:25.087Z,83.22
2018-02-21T03:08:25.012Z,82.84
2018-02-21T03:09:24.910Z,83.03
2018-02-21T03:10:24.837Z,82.93
2018-02-21T03:11:24.738Z,82.93
2018-02-21T03:12:24.661Z,83.12
2018-02-21T03:13:24.574Z,83.03
2018-02-21T03:14:24.490Z,82.84
2018-02-21T03:15:24.405Z,82.84
2018-02-21T03:16:24.310Z,83.03
2018-02-21T03:17:24.240Z,82.93
2018-02-21T03:18:24.134Z,82.93
2018-02-21T03:19:24.061Z,83.22
2018-02-21T03:20:23.975Z,83.59
2018-02-21T03:21:23.888Z,83.59
2018-02-21T03:22:23.803Z,83.69
2018-02-21T03:23:23.718Z,83.50
2018-02-21T03:24:23.637Z,83.31
2018-02-21T03:25:23.540Z,83.78
2018-02-21T03:26:23.460Z,84.54
2018-02-21T03:27:23.389Z,84.64
2018-02-21T03:28:23.291Z,84.45
2018-02-21T03:29:23.196Z,84.35
2018-02-21T03:30:23.121Z,84.26
2018-02-21T03:31:23.027Z,84.64
2018-02-21T03:32:22.934Z,84.54
2018-02-21T03:33:22.869Z,84.45
2018-02-21T03:34:22.774Z,84.54
2018-02-21T03:35:22.690Z,84.64
2018-02-21T03:36:22.610Z,84.82
2018-02-21T03:37:22.514Z,84.92
2018-02-21T03:38:22.428Z,84.16
2018-02-21T03:39:22.343Z,84.07
2018-02-21T03:40:22.259Z,83.88
2018-02-21T03:41:22.188Z,83.88
2018-02-21T03:42:22.089Z,83.97
2018-02-21T03:43:22.011Z,83.97
2018-02-21T03:44:21.923Z,84.16
2018-02-21T03:45:21.839Z,83.88
2018-02-21T03:46:21.741Z,83.78
2018-02-21T03:47:21.657Z,84.07
2018-02-21T03:48:21.576Z,83.50
2018-02-21T03:49:21.491Z,83.31
2018-02-21T03:50:21.413Z,83.50
2018-02-21T03:51:21.314Z,83.12
2018-02-21T03:52:21.233Z,83.88
2018-02-21T03:53:21.139Z,83.97
2018-02-21T03:54:21.061Z,83.78
2018-02-21T03:55:20.970Z,84.07
2018-02-21T03:56:20.888Z,84.07
2018-02-21T03:57:20.806Z,84.54
2018-02-21T03:58:20.713Z,84.73
2018-02-21T03:59:20.629Z,85.01
2018-02-21T04:00:20.543Z,84.73
2018-02-21T04:01:20.450Z,84.54
2018-02-21T04:02:20.368Z,84.54
2018-02-21T04:03:20.299Z,84.16
2018-02-21T04:04:20.246Z,84.26
2018-02-21T04:05:20.119Z,83.97
2018-02-21T04:06:20.028Z,83.88
2018-02-21T04:07:19.939Z,84.35
2018-02-21T04:08:19.873Z,83.97
2018-02-21T04:09:19.764Z,84.35
2018-02-21T04:10:19.695Z,84.07
2018-02-21T04:11:19.605Z,84.16
2018-02-21T04:12:19.513Z,83.97
2018-02-21T04:13:19.430Z,83.50
2018-02-21T04:14:19.349Z,83.69
2018-02-21T04:15:19.269Z,84.35
2018-02-21T04:16:19.169Z,83.88
2018-02-21T04:17:19.098Z,83.88
2018-02-21T04:18:19.005Z,84.16
2018-02-21T04:19:18.919Z,83.88
2018-02-21T04:20:18.831Z,84.07
2018-02-21T04:21:18.741Z,83.88
2018-02-21T04:22:18.669Z,83.88
2018-02-21T04:23:18.570Z,83.88
2018-02-21T04:24:18.479Z,83.97
2018-02-21T04:25:18.403Z,84.16
2018-02-21T04:26:18.315Z,84.07
2018-02-21T04:27:18.228Z,84.16
2018-02-21T04:28:18.145Z,84.54
2018-02-21T04:29:18.067Z,84.64
2018-02-21T04:30:17.973Z,84.73
2018-02-21T04:31:17.889Z,84.64
2018-02-21T04:32:17.797Z,84.82
2018-02-21T04:33:17.721Z,84.73
2018-02-21T04:34:17.671Z,84.82
2018-02-21T04:35:17.542Z,84.64
2018-02-21T04:36:17.472Z,85.39
2018-02-21T04:37:17.370Z,85.30
2018-02-21T04:38:17.287Z,85.01
2018-02-21T04:39:17.198Z,85.49
2018-02-21T04:40:17.106Z,85.01
2018-02-21T04:41:17.024Z,85.01
2018-02-21T04:42:16.944Z,85.11
2018-02-21T04:43:16.860Z,85.39
2018-02-21T04:44:16.777Z,85.49
2018-02-21T04:45:16.694Z,85.68
2018-02-21T04:46:16.600Z,85.58
2018-02-21T04:47:16.516Z,85.68
2018-02-21T04:48:16.420Z,85.58
2018-02-21T04:49:16.346Z,85.68
2018-02-21T04:50:16.255Z,85.68
2018-02-21T04:51:16.167Z,85.77
2018-02-21T04:52:16.091Z,86.24
2018-02-21T04:53:15.994Z,86.43
2018-02-21T04:54:15.923Z,86.52
2018-02-21T04:55:15.828Z,86.62
2018-02-21T04:56:15.735Z,87.18
2018-02-21T04:57:15.653Z,86.71
2018-02-21T04:58:15.568Z,86.62
2018-02-21T04:59:15.485Z,87.18
2018-02-21T05:00:15.403Z,87.09
2018-02-21T05:01:15.323Z,87.09
2018-02-21T05:02:15.222Z,87.56
2018-02-21T05:03:15.138Z,87.37
2018-02-21T05:04:15.058Z,87.56
2018-02-21T05:05:14.974Z,87.56
2018-02-21T05:06:14.884Z,87.75
2018-02-21T05:07:14.796Z,87.85
2018-02-21T05:08:14.713Z,87.47
2018-02-21T05:09:14.619Z,87.37
2018-02-21T05:10:14.543Z,87.09
2018-02-21T05:11:14.461Z,86.99
2018-02-21T05:12:14.359Z,87.28
2018-02-21T05:13:14.281Z,86.80
2018-02-21T05:14:14.198Z,87.09
2018-02-21T05:15:14.114Z,86.90
2018-02-21T05:16:14.027Z,87.28
2018-02-21T05:17:13.939Z,86.90
2018-02-21T05:18:13.849Z,86.90
2018-02-21T05:19:13.764Z,87.09
2018-02-21T05:20:13.670Z,87.09
2018-02-21T05:21:13.601Z,87.09
2018-02-21T05:22:13.506Z,87.09
2018-02-21T05:23:13.423Z,86.62
2018-02-21T05:24:13.342Z,86.80
2018-02-21T05:25:13.246Z,87.18
2018-02-21T05:26:13.170Z,87.37
2018-02-21T05:27:13.075Z,87.18
2018-02-21T05:28:13.000Z,87.56
2018-02-21T05:29:12.908Z,87.56
2018-02-21T05:30:12.814Z,87.47
2018-02-21T05:31:12.754Z,87.56
2018-02-21T05:32:12.654Z,87.56
2018-02-21T05:33:12.566Z,87.66
2018-02-21T05:34:12.479Z,87.37
2018-02-21T05:35:12.403Z,87.37
2018-02-21T05:36:12.299Z,87.37
2018-02-21T05:37:12.215Z,87.47
2018-02-21T05:38:12.129Z,87.47
2018-02-21T05:39:12.047Z,87.47
2018-02-21T05:40:11.965Z,87.56
2018-02-21T05:41:11.876Z,87.56
2018-02-21T05:42:11.804Z,87.66
2018-02-21T05:43:11.704Z,87.56
2018-02-21T05:44:11.616Z,87.37
2018-02-21T05:45:11.527Z,87.75
2018-02-21T05:46:11.437Z,87.66
2018-02-21T05:47:11.369Z,87.37
2018-02-21T05:48:11.283Z,87.47
2018-02-21T05:49:11.190Z,87.47
2018-02-21T05:50:11.104Z,87.66
2018-02-21T05:51:11.034Z,87.75
2018-02-21T05:52:10.929Z,87.94
2018-02-21T05:53:10.857Z,88.23
2018-02-21T05:54:10.753Z,87.75
2018-02-21T05:55:10.676Z,88.70
2018-02-21T05:56:10.595Z,88.70
2018-02-21T05:57:10.500Z,88.60
2018-02-21T05:58:10.430Z,88.60
2018-02-21T05:59:10.328Z,88.51
2018-02-21T06:00:10.250Z,88.51
2018-02-21T06:01:10.157Z,88.60
2018-02-21T06:02:10.074Z,88.42
2018-02-21T06:03:09.977Z,89.17
2018-02-21T06:04:09.907Z,88.23
2018-02-21T06:05:09.912Z,88.60
2018-02-21T06:06:09.731Z,88.70
2018-02-21T06:07:09.645Z,88.98
2018-02-21T06:08:09.552Z,89.17
2018-02-21T06:09:09.486Z,89.26
2018-02-21T06:10:09.376Z,89.17
2018-02-21T06:11:09.300Z,88.89
2018-02-21T06:12:09.208Z,89.07
2018-02-21T06:13:09.129Z,89.45
2018-02-21T06:14:09.047Z,89.26
2018-02-21T06:15:08.960Z,89.17
2018-02-21T06:16:08.870Z,89.26
2018-02-21T06:17:08.780Z,89.07
2018-02-21T06:18:08.693Z,89.17
2018-02-21T06:19:08.603Z,89.17
2018-02-21T06:20:08.532Z,89.26
2018-02-21T06:21:08.456Z,89.17
2018-02-21T06:22:08.353Z,89.36
2018-02-21T06:23:08.279Z,89.45
2018-02-21T06:24:08.186Z,89.92
2018-02-21T06:25:08.111Z,89.17
2018-02-21T06:26:08.013Z,89.54
2018-02-21T06:27:07.933Z,89.17
2018-02-21T06:28:07.836Z,89.26
2018-02-21T06:29:07.765Z,89.36
2018-02-21T06:30:07.670Z,89.54
2018-02-21T06:31:07.584Z,89.45
2018-02-21T06:32:07.544Z,89.36
2018-02-21T06:33:07.405Z,89.26
2018-02-21T06:34:07.335Z,89.17
2018-02-21T06:35:07.241Z,88.79
2018-02-21T06:36:07.160Z,88.98
2018-02-21T06:37:07.073Z,88.79
2018-02-21T06:38:06.980Z,88.70
2018-02-21T06:39:06.896Z,88.51
2018-02-21T06:40:06.811Z,88.70
2018-02-21T06:41:06.729Z,88.70
2018-02-21T06:42:06.637Z,88.32
2018-02-21T06:43:06.547Z,88.04
2018-02-21T06:44:06.469Z,88.13
2018-02-21T06:45:06.386Z,87.18
2018-02-21T06:46:06.308Z,87.18
2018-02-21T06:47:06.209Z,87.47
2018-02-21T06:48:06.136Z,87.47
2018-02-21T06:49:06.088Z,87.51
2018-02-21T06:50:05.952Z,87.75
2018-02-21T06:51:05.865Z,87.28
2018-02-21T06:52:05.781Z,87.47
2018-02-21T06:53:05.699Z,87.37
2018-02-21T06:54:05.614Z,87.56
2018-02-21T06:55:05.519Z,87.23
2018-02-21T06:56:05.441Z,87.04
2018-02-21T06:57:05.351Z,86.85
2018-02-21T06:58:05.263Z,86.47
2018-02-21T06:59:05.192Z,86.76
2018-02-21T07:00:05.098Z,86.38
2018-02-21T07:01:05.013Z,86.19
2018-02-21T07:02:04.926Z,86.38
2018-02-21T07:03:04.831Z,85.53
2018-02-21T07:04:04.749Z,85.72
2018-02-21T07:05:04.664Z,85.53
2018-02-21T07:06:04.591Z,85.81
2018-02-21T07:07:04.502Z,85.81
2018-02-21T07:08:04.409Z,86.00
2018-02-21T07:09:04.326Z,85.05
2018-02-21T07:10:04.249Z,85.43
2018-02-21T07:11:04.147Z,85.62
2018-02-21T07:12:04.079Z,85.72
2018-02-21T07:13:03.982Z,86.10
2018-02-21T07:14:03.900Z,85.62
2018-02-21T07:15:03.812Z,85.72
2018-02-21T07:16:03.737Z,85.81
2018-02-21T07:17:03.642Z,85.53
2018-02-21T07:18:03.560Z,85.72
2018-02-21T07:19:03.477Z,86.10
2018-02-21T07:20:03.392Z,86.10
2018-02-21T07:21:03.310Z,86.29
2018-02-21T07:22:03.213Z,85.91
2018-02-21T07:23:03.139Z,85.91
2018-02-21T07:24:03.049Z,86.19
2018-02-21T07:25:02.964Z,86.19
2018-02-21T07:26:02.874Z,85.62
2018-02-21T07:27:02.790Z,86.00
2018-02-21T07:28:02.705Z,85.81
2018-02-21T07:29:02.638Z,85.15
2018-02-21T07:30:02.540Z,85.62
2018-02-21T07:31:02.468Z,85.43
2018-02-21T07:32:02.360Z,85.43
2018-02-21T07:33:02.295Z,85.24
2018-02-21T07:34:02.190Z,85.15
2018-02-21T07:35:02.113Z,85.05
2018-02-21T07:36:02.031Z,84.86
2018-02-21T07:37:01.939Z,85.24
2018-02-21T07:38:01.872Z,84.72
2018-02-21T07:39:01.772Z,84.81
2018-02-21T07:40:01.685Z,84.81
2018-02-21T07:41:01.608Z,84.63
2018-02-21T07:42:01.518Z,83.97
2018-02-21T07:43:01.430Z,83.59
2018-02-21T07:44:01.342Z,83.59
2018-02-21T07:45:01.264Z,83.49
2018-02-21T07:46:01.184Z,83.68
2018-02-21T07:47:01.093Z,83.30
2018-02-21T07:48:01.003Z,83.11
2018-02-21T07:49:00.939Z,82.73
2018-02-21T07:50:00.836Z,82.35
2018-02-21T07:51:00.757Z,82.17
2018-02-21T07:52:00.674Z,82.73
2018-02-21T07:53:00.582Z,82.45
2018-02-21T07:54:00.507Z,82.45
2018-02-21T07:55:00.419Z,82.07
2018-02-21T07:56:00.339Z,81.98
2018-02-21T07:57:00.243Z,82.45
2018-02-21T07:58:00.168Z,82.92
2018-02-21T07:59:00.083Z,82.54
2018-02-21T07:59:59.994Z,83.02
2018-02-21T08:00:59.937Z,82.83
2018-02-21T08:01:59.821Z,82.92
2018-02-21T08:02:59.764Z,83.21
2018-02-21T08:03:59.667Z,83.02
2018-02-21T08:04:59.615Z,82.73
2018-02-21T08:05:59.494Z,83.02
2018-02-21T08:06:59.405Z,83.11
2018-02-21T08:07:59.319Z,83.02
2018-02-21T08:08:59.244Z,83.02
2018-02-21T08:09:59.179Z,82.83
2018-02-21T08:10:59.216Z,82.73
2018-02-21T08:11:59.130Z,82.54
2018-02-21T08:12:59.007Z,83.11
2018-02-21T08:13:59.143Z,83.11
2018-02-21T08:14:58.858Z,82.92
2018-02-21T08:15:58.643Z,83.34
2018-02-21T08:16:58.706Z,82.97
2018-02-21T08:17:58.509Z,82.73
2018-02-21T08:18:58.511Z,83.15
2018-02-21T08:19:58.629Z,83.15
2018-02-21T08:20:58.298Z,82.21
2018-02-21T08:21:58.154Z,82.92
2018-02-21T08:22:58.110Z,82.78
2018-02-21T08:23:58.211Z,82.02
2018-02-21T08:24:57.931Z,81.93
2018-02-21T08:25:57.819Z,81.83
2018-02-21T08:26:57.724Z,81.45
2018-02-21T08:27:57.631Z,81.36
2018-02-21T08:28:57.544Z,80.36
2018-02-21T08:29:57.472Z,79.79
2018-02-21T08:30:57.388Z,79.13
2018-02-21T08:31:57.295Z,78.03
2018-02-21T08:32:57.220Z,77.18
2018-02-21T08:33:57.129Z,76.23
2018-02-21T08:34:57.043Z,76.23
2018-02-21T08:35:56.959Z,76.32
2018-02-21T08:36:56.894Z,75.85
2018-02-21T08:37:56.798Z,75.38
2018-02-21T08:38:56.727Z,75.28
2018-02-21T08:39:56.634Z,75.19
2018-02-21T08:40:56.552Z,74.66
2018-02-21T08:41:56.456Z,74.75
2018-02-21T08:42:56.645Z,73.99
2018-02-21T08:43:56.304Z,73.14
2018-02-21T08:44:56.219Z,72.38
2018-02-21T08:45:56.185Z,72.38
2018-02-21T08:46:56.050Z,73.33
2018-02-21T08:47:55.968Z,73.77
2018-02-21T08:48:55.893Z,74.52
2018-02-21T08:49:55.799Z,75.28
2018-02-21T08:50:55.721Z,75.19
2018-02-21T08:51:55.639Z,75.38
2018-02-21T08:52:55.556Z,75.76
2018-02-21T08:53:55.473Z,75.79
2018-02-21T08:54:55.402Z,75.04
2018-02-21T08:55:55.319Z,73.80
2018-02-21T08:56:55.243Z,72.96
2018-02-21T08:57:55.176Z,72.57
2018-02-21T08:58:55.061Z,73.05
2018-02-21T08:59:54.991Z,72.86
2018-02-21T09:00:54.896Z,72.86
2018-02-21T09:01:54.825Z,73.43
2018-02-21T09:02:54.742Z,72.86
2018-02-21T09:03:54.661Z,72.38
2018-02-21T09:04:54.579Z,71.85
2018-02-21T09:05:54.495Z,71.19
2018-02-21T09:06:54.415Z,70.81
2018-02-21T09:07:54.325Z,70.90
2018-02-21T09:08:54.247Z,70.72
2018-02-21T09:09:54.165Z,70.53
2018-02-21T09:10:54.093Z,69.86
2018-02-21T09:11:54.011Z,69.77
2018-02-21T09:12:53.932Z,69.35
2018-02-21T09:13:53.841Z,70.11
2018-02-21T09:14:53.765Z,70.81
2018-02-21T09:15:53.676Z,70.15
2018-02-21T09:16:53.595Z,69.29
2018-02-21T09:17:53.520Z,69.57
2018-02-21T09:18:53.433Z,69.38
2018-02-21T09:19:53.346Z,68.19
2018-02-21T09:20:53.282Z,67.81
2018-02-21T09:21:53.191Z,67.33
2018-02-21T09:22:53.100Z,67.14
2018-02-21T09:23:53.028Z,66.96
2018-02-21T09:24:52.946Z,66.04
2018-02-21T09:25:52.877Z,66.20
2018-02-21T09:26:52.784Z,66.83
2018-02-21T09:27:52.698Z,68.06
2018-02-21T09:28:52.632Z,68.73
2018-02-21T09:29:52.538Z,68.91
2018-02-21T09:30:52.454Z,70.05
2018-02-21T09:31:52.380Z,70.62
2018-02-21T09:32:52.299Z,70.05
2018-02-21T09:33:52.227Z,70.15
2018-02-21T09:34:52.148Z,70.05
2018-02-21T09:35:52.052Z,70.24
2018-02-21T09:36:51.982Z,69.38
2018-02-21T09:37:51.900Z,69.48
2018-02-21T09:38:51.817Z,69.20
2018-02-21T09:39:51.735Z,69.77
2018-02-21T09:40:51.655Z,70.72
2018-02-21T09:41:51.578Z,70.39
2018-02-21T09:42:51.503Z,71.25
2018-02-21T09:43:51.400Z,71.44
2018-02-21T09:44:51.336Z,70.90
2018-02-21T09:45:51.240Z,70.53
2018-02-21T09:46:51.170Z,70.97
2018-02-21T09:47:51.081Z,71.72
2018-02-21T09:48:51.002Z,71.81
2018-02-21T09:49:50.933Z,72.19
2018-02-21T09:50:50.858Z,72.57
2018-02-21T09:51:50.756Z,72.96
2018-02-21T09:52:50.679Z,72.86
2018-02-21T09:53:50.604Z,72.19
2018-02-21T09:54:50.522Z,72.19
2018-02-21T09:55:50.434Z,72.19
2018-02-21T09:56:50.352Z,72.10
2018-02-21T09:57:50.275Z,71.81
2018-02-21T09:58:50.208Z,71.81
2018-02-21T09:59:50.107Z,72.38
2018-02-21T10:00:50.033Z,72.57
2018-02-21T10:01:49.940Z,72.96
2018-02-21T10:02:49.853Z,72.19
2018-02-21T10:03:49.784Z,72.57
2018-02-21T10:04:49.690Z,72.48
2018-02-21T10:05:49.634Z,72.19
2018-02-21T10:06:49.532Z,72.86
2018-02-21T10:07:49.451Z,71.91
2018-02-21T10:08:49.376Z,71.34
2018-02-21T10:09:49.297Z,70.68
2018-02-21T10:10:49.204Z,71.06
2018-02-21T10:11:49.134Z,71.06
2018-02-21T10:12:49.045Z,70.78
2018-02-21T10:13:48.958Z,71.06
2018-02-21T10:14:48.886Z,70.81
2018-02-21T10:15:48.797Z,69.67
2018-02-21T10:16:48.723Z,69.01
2018-02-21T10:17:48.632Z,68.25
2018-02-21T10:18:48.555Z,68.35
2018-02-21T10:19:48.475Z,68.35
2018-02-21T10:20:48.394Z,67.90
2018-02-21T10:21:48.309Z,68.00
2018-02-21T10:22:48.236Z,67.43
2018-02-21T10:23:48.144Z,66.77
2018-02-21T10:24:48.071Z,66.16
2018-02-21T10:25:47.979Z,66.54
2018-02-21T10:26:47.914Z,66.16
2018-02-21T10:27:47.827Z,65.78
2018-02-21T10:28:47.749Z,65.88
2018-02-21T10:29:47.661Z,65.88
2018-02-21T10:30:47.585Z,64.84
2018-02-21T10:31:47.495Z,65.12
2018-02-21T10:32:47.427Z,64.93
2018-02-21T10:33:47.337Z,65.12
2018-02-21T10:34:47.259Z,64.36
2018-02-21T10:35:47.183Z,64.74
2018-02-21T10:36:47.113Z,64.27
2018-02-21T10:37:47.011Z,64.46
2018-02-21T10:38:46.930Z,63.92
2018-02-21T10:39:46.859Z,62.50
2018-02-21T10:40:46.786Z,61.87
2018-02-21T10:41:46.686Z,61.14
2018-02-21T10:42:46.616Z,59.52
2018-02-21T10:43:46.521Z,58.61
2018-02-21T10:44:46.455Z,57.43
2018-02-21T10:45:46.357Z,57.53
2018-02-21T10:46:46.284Z,58.45
2018-02-21T10:47:46.217Z,59.21
2018-02-21T10:48:46.153Z,59.56
2018-02-21T10:49:46.039Z,60.13
2018-02-21T10:50:45.968Z,60.31
2018-02-21T10:51:45.885Z,61.36
2018-02-21T10:52:45.814Z,61.46
2018-02-21T10:53:45.723Z,60.41
2018-02-21T10:54:45.638Z,60.31
2018-02-21T10:55:45.564Z,60.98
2018-02-21T10:56:45.471Z,60.73
2018-02-21T10:57:45.419Z,60.35
2018-02-21T10:58:45.314Z,59.97
2018-02-21T10:59:45.233Z,59.88
2018-02-21T11:00:45.164Z,59.02
2018-02-21T11:01:45.075Z,59.59
2018-02-21T11:02:45.010Z,59.37
2018-02-21T11:03:44.917Z,59.37
2018-02-21T11:04:44.834Z,59.94
2018-02-21T11:05:44.762Z,59.94
2018-02-21T11:06:44.681Z,59.68
2018-02-21T11:07:44.777Z,59.59
2018-02-21T11:08:44.514Z,58.76
2018-02-21T11:09:44.438Z,56.01
2018-02-21T11:10:44.354Z,55.89
2018-02-21T11:11:44.281Z,56.43
2018-02-21T11:12:44.211Z,56.99
2018-02-21T11:13:44.118Z,57.66
2018-02-21T11:14:44.041Z,58.14
2018-02-21T11:15:43.961Z,58.51
2018-02-21T11:16:43.878Z,58.51
2018-02-21T11:17:43.810Z,58.73
2018-02-21T11:18:43.709Z,58.23
2018-02-21T11:19:43.638Z,58.04
2018-02-21T11:20:43.563Z,58.61
2018-02-21T11:21:43.491Z,58.14
2018-02-21T11:22:43.418Z,58.23
2018-02-21T11:23:43.336Z,59.27
2018-02-21T11:24:43.243Z,59.18
2018-02-21T11:25:43.155Z,58.51
2018-02-21T11:26:43.078Z,59.37
2018-02-21T11:27:43.021Z,59.08
2018-02-21T11:28:42.912Z,58.51
2018-02-21T11:29:42.841Z,58.23
2018-02-21T11:30:42.760Z,57.73
2018-02-21T11:31:42.678Z,57.92
2018-02-21T11:32:42.598Z,58.48
2018-02-21T11:33:42.513Z,58.77
2018-02-21T11:34:42.438Z,59.56
2018-02-21T11:35:42.360Z,59.53
2018-02-21T11:36:42.280Z,59.63
2018-02-21T11:37:42.191Z,59.94
2018-02-21T11:38:42.252Z,60.31
2018-02-21T11:39:42.170Z,59.84
2018-02-21T11:40:42.013Z,59.11
2018-02-21T11:41:41.885Z,57.95
2018-02-21T11:42:41.999Z,58.89
2018-02-21T11:43:41.707Z,57.85
2018-02-21T11:44:41.626Z,57.28
2018-02-21T11:45:41.544Z,56.49
2018-02-21T11:46:41.473Z,56.99
2018-02-21T11:47:41.390Z,56.15
2018-02-21T11:48:41.308Z,55.67
2018-02-21T11:49:41.235Z,55.57
2018-02-21T11:50:41.140Z,54.82
2018-02-21T11:51:41.073Z,54.63
2018-02-21T11:52:40.978Z,54.44
2018-02-21T11:53:40.918Z,53.99
2018-02-21T11:54:40.831Z,53.52
2018-02-21T11:55:40.738Z,52.95
2018-02-21T11:56:40.674Z,53.80
2018-02-21T11:57:40.625Z,54.46
2018-02-21T11:58:40.508Z,54.44
2018-02-21T11:59:40.419Z,55.64
2018-02-21T12:00:40.342Z,57.25
2018-02-21T12:01:40.276Z,58.01
2018-02-21T12:02:40.198Z,58.55
2018-02-21T12:03:40.097Z,59.34
2018-02-21T12:04:40.026Z,59.63
2018-02-21T12:05:39.940Z,59.50
2018-02-21T12:06:39.870Z,59.91
2018-02-21T12:07:39.782Z,60.25
2018-02-21T12:08:39.694Z,60.16
2018-02-21T12:09:39.630Z,61.05
2018-02-21T12:10:39.553Z,60.86
2018-02-21T12:11:39.456Z,61.68
2018-02-21T12:12:39.376Z,61.58
2018-02-21T12:13:39.292Z,61.52
2018-02-21T12:14:39.207Z,61.99
2018-02-21T12:15:39.135Z,61.24
2018-02-21T12:16:39.059Z,60.22
2018-02-21T12:17:38.971Z,58.14
2018-02-21T12:18:38.896Z,56.05
2018-02-21T12:19:38.804Z,55.06
2018-02-21T12:20:38.723Z,53.26
2018-02-21T12:21:38.644Z,53.00
2018-02-21T12:22:38.561Z,51.98
2018-02-21T12:23:38.499Z,50.53
2018-02-21T12:24:38.398Z,50.12
2018-02-21T12:25:38.328Z,51.07
2018-02-21T12:26:38.250Z,51.62
2018-02-21T12:27:38.165Z,51.74
2018-02-21T12:28:38.097Z,52.78
2018-02-21T12:29:37.992Z,52.47
2018-02-21T12:30:37.921Z,53.23
2018-02-21T12:31:37.848Z,54.08
2018-02-21T12:32:37.759Z,52.22
2018-02-21T12:33:37.698Z,52.37
2018-02-21T12:34:37.601Z,53.14
2018-02-21T12:35:37.519Z,53.04
2018-02-21T12:36:37.484Z,53.04
2018-02-21T12:37:37.371Z,53.16
2018-02-21T12:38:37.292Z,52.87
2018-02-21T12:39:37.200Z,51.10
2018-02-21T12:40:37.167Z,51.74
2018-02-21T12:41:37.054Z,52.50
2018-02-21T12:42:36.984Z,52.40
2018-02-21T12:43:36.900Z,53.33
2018-02-21T12:44:36.814Z,54.46
2018-02-21T12:45:36.722Z,55.18
2018-02-21T12:46:36.648Z,54.33
2018-02-21T12:47:36.583Z,52.29
2018-02-21T12:48:36.494Z,49.63
2018-02-21T12:49:36.414Z,48.71
2018-02-21T12:50:36.339Z,47.80
2018-02-21T12:51:36.269Z,48.85